Time;durP1;ratioP1;P1;durP2;ratioP2;P2;SDS_P1;SDS_P2;PMS_P1;PMS_P2;Temp;Humidity;BMP_temperature;BMP_pressure;BME280_temperature;BME280_humidity;BME280_pressure;Samples;Min_cycle;Max_cycle;Signal;HPM_P1;HPM_P2
2023/03/17 00:01:16;;;;;;;154.10;65.30;;;;;;;0.96;73.32;99896.11;107682;1310;23386;-43
2023/03/17 00:03:44;;;;;;;138.10;61.40;;;;;;;0.92;73.60;99893.89;107687;1310;22238;-42
2023/03/17 00:06:20;;;;;;;131.80;58.40;;;;;;;0.90;73.63;99896.85;107697;1310;22219;-43
2023/03/17 00:08:46;;;;;;;122.50;52.60;;;;;;;0.87;73.79;99890.98;107708;1310;22396;-44
2023/03/17 00:11:14;;;;;;;112.20;48.10;;;;;;;0.85;73.73;99892.38;107699;1310;22308;-52
2023/03/17 00:13:40;;;;;;;116.90;47.60;;;;;;;0.83;74.20;99891.19;107710;1310;22958;-44
2023/03/17 00:16:24;;;;;;;101.30;43.30;;;;;;;0.82;73.89;99888.77;107690;1309;22210;-43
2023/03/17 00:18:52;;;;;;;94.10;42.10;;;;;;;0.86;73.96;99886.33;107263;1310;22267;-43
2023/03/17 00:21:26;;;;;;;84.70;38.00;;;;;;;0.89;73.80;99884.93;107666;1310;22371;-42
2023/03/17 00:23:51;;;;;;;81.80;36.80;;;;;;;0.91;73.09;99881.30;107656;1310;22212;-44
2023/03/17 00:26:18;;;;;;;88.80;37.50;;;;;;;0.90;72.80;99871.80;107683;1310;22214;-42
2023/03/17 00:28:43;;;;;;;75.60;32.50;;;;;;;0.91;72.65;99868.52;107683;1309;22939;-42
2023/03/17 00:31:19;;;;;;;83.90;34.10;;;;;;;0.90;72.78;99862.65;107703;1310;22255;-43
2023/03/17 00:33:46;;;;;;;68.80;29.10;;;;;;;0.96;72.48;99859.50;107670;1310;23136;-44
2023/03/17 00:36:18;;;;;;;83.50;31.70;;;;;;;0.98;72.63;99857.59;107696;1286;22236;-42
2023/03/17 00:38:44;;;;;;;75.80;31.30;;;;;;;1.00;72.88;99858.62;107660;1309;22409;-43
2023/03/17 00:41:11;;;;;;;71.40;30.40;;;;;;;1.02;72.65;99857.05;107580;1310;22891;-43
2023/03/17 00:43:37;;;;;;;81.40;32.90;;;;;;;1.04;72.98;99856.02;107687;1310;22319;-43
2023/03/17 00:46:13;;;;;;;73.20;33.60;;;;;;;1.02;72.45;99853.95;107682;1310;22220;-44
2023/03/17 00:48:39;;;;;;;84.10;35.20;;;;;;;1.02;72.27;99851.02;107686;1310;22369;-44
2023/03/17 00:51:04;;;;;;;75.40;34.80;;;;;;;1.03;72.15;99848.76;107653;1310;22192;-43
2023/03/17 00:53:30;;;;;;;83.20;34.90;;;;;;;1.02;72.19;99844.10;107681;1310;23012;-43
2023/03/17 00:55:55;;;;;;;75.30;34.30;;;;;;;1.03;72.65;99843.23;107668;1310;22245;-43
2023/03/17 00:58:30;;;;;;;74.10;34.60;;;;;;;1.03;73.30;99838.39;107678;1310;22407;-43
2023/03/17 01:00:55;;;;;;;77.30;33.00;;;;;;;1.01;73.58;99835.48;107687;1310;22372;-42
2023/03/17 01:03:21;;;;;;;70.40;31.90;;;;;;;1.00;73.68;99834.10;107712;1310;22242;-43
2023/03/17 01:05:48;;;;;;;63.80;30.00;;;;;;;0.99;73.82;99832.20;107680;1310;22298;-43
2023/03/17 01:08:15;;;;;;;64.80;28.90;;;;;;;0.98;72.89;99828.23;107681;1310;22228;-43
2023/03/17 01:10:41;;;;;;;69.30;29.00;;;;;;;0.98;72.71;99828.07;107702;1310;22974;-43
2023/03/17 01:13:10;;;;;;;65.70;28.10;;;;;;;0.97;72.74;99827.05;107682;1310;22373;-45
2023/03/17 01:15:40;;;;;;;59.80;27.20;;;;;;;0.93;72.73;99820.17;107706;1310;22967;-43
2023/03/17 01:18:05;;;;;;;67.90;29.80;;;;;;;0.92;73.31;99811.89;107704;1309;22236;-42
2023/03/17 01:20:33;;;;;;;64.10;26.80;;;;;;;0.92;74.46;99818.61;107694;1309;22281;-43
2023/03/17 01:23:00;;;;;;;62.80;25.00;;;;;;;0.92;73.84;99819.66;107574;1310;147774;-43
2023/03/17 01:25:26;;;;;;;60.20;25.60;;;;;;;0.92;73.15;99817.59;107691;1310;23075;-42
2023/03/17 01:27:54;;;;;;;51.80;25.60;;;;;;;0.93;73.94;99811.35;107678;1310;22324;-43
2023/03/17 01:30:26;;;;;;;52.30;22.70;;;;;;;0.92;73.53;99808.96;107697;1310;22301;-43
2023/03/17 01:32:52;;;;;;;50.10;22.80;;;;;;;0.92;72.88;99808.27;107683;1309;22750;-43
2023/03/17 01:35:18;;;;;;;57.60;24.40;;;;;;;0.92;73.67;99809.30;107680;1310;22245;-43
2023/03/17 01:37:44;;;;;;;46.10;21.30;;;;;;;0.94;73.48;99804.44;107681;1309;22926;-43
2023/03/17 01:40:14;;;;;;;52.60;22.70;;;;;;;0.94;73.88;99803.58;107682;1310;22382;-43
2023/03/17 01:42:41;;;;;;;42.60;20.50;;;;;;;0.93;73.24;99803.95;107662;1309;22254;-42
2023/03/17 01:45:45;;;;;;;47.00;21.30;;;;;;;0.92;73.61;99802.05;107688;1309;22444;-44
2023/03/17 01:48:10;;;;;;;46.80;19.10;;;;;;;0.94;73.54;99801.17;107674;1310;22307;-42
2023/03/17 01:50:36;;;;;;;44.90;20.10;;;;;;;0.94;73.14;99802.21;107719;1310;23341;-44
2023/03/17 01:53:02;;;;;;;41.50;18.30;;;;;;;0.93;72.18;99799.30;107694;1310;22825;-43
2023/03/17 01:55:29;;;;;;;37.80;18.20;;;;;;;0.91;72.14;99799.13;107704;1309;22217;-43
2023/03/17 01:57:55;;;;;;;38.70;18.20;;;;;;;0.91;72.36;99793.08;107685;1309;21984;-43
2023/03/17 02:00:23;;;;;;;38.30;18.60;;;;;;;0.90;71.53;99795.67;107726;1310;22918;-43
2023/03/17 02:02:51;;;;;;;40.00;19.00;;;;;;;0.91;72.16;99799.98;107721;1310;22400;-43
2023/03/17 02:05:21;;;;;;;34.50;17.00;;;;;;;0.92;72.16;99803.42;107701;1309;22227;-43
2023/03/17 02:07:46;;;;;;;46.10;18.40;;;;;;;0.91;72.56;99801.54;107713;1309;23370;-42
2023/03/17 02:10:14;;;;;;;41.30;16.90;;;;;;;0.90;72.01;99801.02;107686;1310;22235;-43
2023/03/17 02:12:42;;;;;;;36.00;17.10;;;;;;;0.92;72.34;99798.94;107387;1297;22246;-42
2023/03/17 02:15:09;;;;;;;33.00;15.40;;;;;;;0.94;72.31;99792.54;107464;1309;23000;-43
2023/03/17 02:17:35;;;;;;;29.00;14.00;;;;;;;0.96;71.40;99793.55;107706;1310;23263;-43
2023/03/17 02:20:16;;;;;;;28.00;14.60;;;;;;;0.96;71.11;99790.10;107693;1310;22394;-44
2023/03/17 02:22:44;;;;;;;33.60;14.90;;;;;;;0.99;71.74;99785.59;107680;1310;22968;-43
2023/03/17 02:25:09;;;;;;;34.60;14.30;;;;;;;1.00;71.04;99781.27;107723;1309;22230;-43
2023/03/17 02:27:40;;;;;;;32.20;14.10;;;;;;;1.01;71.25;99781.78;107705;1310;22246;-46
2023/03/17 02:30:09;;;;;;;32.60;13.70;;;;;;;1.04;70.96;99786.08;107703;1310;22289;-43
2023/03/17 02:32:35;;;;;;;26.50;12.30;;;;;;;1.06;70.53;99791.58;107700;1309;22506;-43
2023/03/17 02:35:01;;;;;;;33.20;13.70;;;;;;;1.11;70.81;99793.42;107718;1310;23158;-43
2023/03/17 02:37:26;;;;;;;33.50;12.70;;;;;;;1.13;70.22;99793.76;107707;1309;22357;-42
2023/03/17 02:39:52;;;;;;;29.80;14.00;;;;;;;1.17;70.37;99799.09;107721;1309;22229;-43
2023/03/17 02:43:40;;;;;;;31.80;14.50;;;;;;;1.20;69.12;99794.04;107231;1302;545119;-43
2023/03/17 02:46:06;;;;;;;42.10;15.50;;;;;;;1.18;69.01;99797.69;107879;1308;22228;-43
2023/03/17 02:48:35;;;;;;;34.20;14.80;;;;;;;1.15;70.12;99799.62;107898;1308;22321;-43
2023/03/17 02:51:01;;;;;;;34.60;14.50;;;;;;;1.13;70.70;99796.88;107904;1308;22948;-42
2023/03/17 02:53:26;;;;;;;31.70;13.80;;;;;;;1.11;70.07;99792.23;107904;1308;22234;-42
2023/03/17 02:55:51;;;;;;;28.60;14.30;;;;;;;1.09;69.77;99792.58;107881;1308;22537;-42
2023/03/17 02:58:16;;;;;;;29.50;13.20;;;;;;;1.11;70.04;99790.66;107994;1305;153553;-43
2023/03/17 03:00:42;;;;;;;30.40;14.20;;;;;;;1.10;70.03;99787.04;108138;1305;22252;-43
2023/03/17 03:03:08;;;;;;;26.00;12.20;;;;;;;1.09;69.99;99782.73;108137;1305;22308;-43
2023/03/17 03:05:34;;;;;;;31.20;11.50;;;;;;;1.05;69.42;99787.79;107944;1305;22214;-43
2023/03/17 03:07:59;;;;;;;25.80;11.50;;;;;;;1.07;69.94;99795.54;108146;1305;22223;-42
2023/03/17 03:10:25;;;;;;;26.60;11.00;;;;;;;1.10;69.66;99797.77;108148;1305;22305;-43
2023/03/17 03:12:50;;;;;;;25.10;11.10;;;;;;;1.11;69.81;99799.48;108145;1305;22420;-42
2023/03/17 03:15:16;;;;;;;25.40;10.20;;;;;;;1.11;69.28;99804.48;108137;1305;22291;-43
2023/03/17 03:17:41;;;;;;;27.60;10.40;;;;;;;1.11;69.32;99805.17;108140;1305;22344;-43
2023/03/17 03:20:10;;;;;;;24.30;12.30;;;;;;;1.13;69.38;99807.39;108143;1305;22306;-43
2023/03/17 03:22:35;;;;;;;32.00;13.10;;;;;;;1.14;69.00;99799.79;108145;1305;23003;-43
2023/03/17 03:25:00;;;;;;;29.60;13.40;;;;;;;1.10;68.73;99795.85;108149;1305;22939;-43
2023/03/17 03:27:26;;;;;;;35.10;15.40;;;;;;;1.10;68.86;99795.35;108157;1305;22418;-42
2023/03/17 03:29:51;;;;;;;33.50;14.70;;;;;;;1.10;69.21;99790.67;108114;1305;22331;-43
2023/03/17 03:32:16;;;;;;;34.90;13.90;;;;;;;1.07;68.97;99787.60;108143;1305;22411;-42
2023/03/17 03:34:41;;;;;;;30.10;14.30;;;;;;;1.08;68.81;99785.52;108140;1305;22295;-42
2023/03/17 03:37:07;;;;;;;34.00;15.10;;;;;;;1.08;68.65;99792.59;108144;1305;22266;-43
2023/03/17 03:39:32;;;;;;;42.50;15.20;;;;;;;1.08;68.41;99789.48;108142;1305;22285;-42
2023/03/17 03:41:57;;;;;;;38.80;14.50;;;;;;;1.07;68.62;99783.45;108143;1305;22255;-42
2023/03/17 03:44:23;;;;;;;32.50;13.40;;;;;;;1.06;68.90;99784.33;108147;1305;23272;-42
2023/03/17 03:46:49;;;;;;;33.40;13.80;;;;;;;1.02;68.74;99791.27;108169;1305;22451;-42
2023/03/17 03:49:14;;;;;;;35.10;13.90;;;;;;;1.06;69.11;99799.52;108160;1305;22314;-43
2023/03/17 03:51:40;;;;;;;32.40;14.30;;;;;;;1.06;68.80;99800.89;108137;1305;22259;-42
2023/03/17 03:54:06;;;;;;;25.70;13.80;;;;;;;1.06;69.23;99804.70;108135;1306;23647;-42
2023/03/17 03:56:31;;;;;;;34.90;14.50;;;;;;;1.05;69.31;99808.34;108123;1306;22306;-42
2023/03/17 03:58:56;;;;;;;33.30;13.80;;;;;;;1.05;69.17;99803.48;108125;1306;23296;-43
2023/03/17 04:01:22;;;;;;;39.70;15.90;;;;;;;1.05;68.85;99802.98;108077;1306;22394;-43
2023/03/17 04:03:47;;;;;;;34.90;15.80;;;;;;;1.02;68.73;99809.73;108123;1306;23201;-43
2023/03/17 04:06:13;;;;;;;32.80;15.50;;;;;;;0.99;68.77;99803.55;108107;1306;22265;-48
2023/03/17 04:08:38;;;;;;;41.30;15.80;;;;;;;1.01;68.93;99794.20;108127;1306;22233;-43
2023/03/17 04:11:04;;;;;;;35.90;15.60;;;;;;;0.99;69.04;99791.81;108123;1306;22939;-43
2023/03/17 04:13:29;;;;;;;40.70;16.80;;;;;;;0.97;69.07;99794.23;108114;1306;22225;-43
2023/03/17 04:15:55;;;;;;;40.00;17.00;;;;;;;0.95;69.33;99789.08;108119;1306;22514;-43
2023/03/17 04:18:20;;;;;;;34.40;15.50;;;;;;;0.97;69.48;99794.94;108145;1306;22783;-44
2023/03/17 04:20:46;;;;;;;38.60;15.90;;;;;;;1.00;69.45;99797.33;108134;1306;22218;-42
2023/03/17 04:23:11;;;;;;;39.40;15.90;;;;;;;1.02;69.45;99795.92;108138;1306;22417;-42
2023/03/17 04:25:37;;;;;;;34.70;15.70;;;;;;;1.01;69.65;99792.48;108120;1306;22432;-42
2023/03/17 04:28:02;;;;;;;50.30;17.20;;;;;;;1.03;69.49;99792.13;108116;1306;22698;-43
2023/03/17 04:30:27;;;;;;;46.70;18.10;;;;;;;1.04;69.80;99791.41;108114;1306;22229;-43
2023/03/17 04:32:53;;;;;;;38.20;16.70;;;;;;;1.09;69.54;99792.40;108102;1306;22268;-43
2023/03/17 04:35:21;;;;;;;40.10;17.60;;;;;;;1.11;69.56;99794.13;108122;1306;23003;-42
2023/03/17 04:37:47;;;;;;;;;;;;;;;1.13;69.49;99801.70;108139;1306;22447;-42
2023/03/17 04:40:13;;;;;;;44.80;18.20;;;;;;;1.13;69.39;99803.79;108129;1306;23130;-42
2023/03/17 04:42:38;;;;;;;42.20;18.70;;;;;;;1.09;69.51;99805.88;108143;1306;22378;-42
2023/03/17 04:45:05;;;;;;;42.10;19.70;;;;;;;1.07;69.60;99808.83;108119;1306;22424;-43
2023/03/17 04:47:31;;;;;;;45.40;18.80;;;;;;;1.10;69.46;99807.42;108137;1306;22390;-42
2023/03/17 04:49:57;;;;;;;47.10;19.50;;;;;;;1.11;69.54;99802.75;108118;1306;22262;-43
2023/03/17 04:52:22;;;;;;;41.70;18.70;;;;;;;1.08;69.69;99794.33;108145;1306;22243;-43
2023/03/17 04:54:47;;;;;;;44.00;19.20;;;;;;;1.08;69.67;99795.70;108114;1306;23187;-42
2023/03/17 04:57:13;;;;;;;45.50;18.40;;;;;;;1.03;69.69;99793.67;108115;1306;22414;-42
2023/03/17 04:59:38;;;;;;;44.00;18.50;;;;;;;1.03;69.87;99796.95;108130;1306;22447;-43
2023/03/17 05:02:03;;;;;;;44.90;18.20;;;;;;;1.03;69.83;99795.40;108106;1306;23017;-43
2023/03/17 05:04:28;;;;;;;36.10;16.80;;;;;;;1.04;69.89;99792.46;108125;1306;22249;-42
2023/03/17 05:06:56;;;;;;;37.10;16.50;;;;;;;1.02;69.93;99796.61;108155;1306;23402;-42
2023/03/17 05:09:22;;;;;;;32.70;15.40;;;;;;;0.96;69.84;99796.84;108126;1306;22424;-42
2023/03/17 05:11:48;;;;;;;36.60;15.80;;;;;;;0.97;70.00;99803.05;108113;1306;22401;-42
2023/03/17 05:14:13;;;;;;;42.20;15.80;;;;;;;0.99;69.63;99810.46;108121;1306;22285;-43
2023/03/17 05:16:38;;;;;;;88.80;18.00;;;;;;;0.99;69.69;99810.63;108115;1305;22383;-43
2023/03/17 05:19:04;;;;;;;33.10;15.60;;;;;;;1.03;69.75;99819.05;108127;1306;24239;-43
2023/03/17 05:21:29;;;;;;;38.60;15.30;;;;;;;1.03;69.84;99818.71;108150;1306;22509;-43
2023/03/17 05:23:54;;;;;;;29.30;13.90;;;;;;;1.03;69.87;99827.17;108164;1306;22453;-43
2023/03/17 05:26:20;;;;;;;29.70;13.60;;;;;;;1.04;69.25;99831.83;108134;1306;22461;-44
2023/03/17 05:28:47;;;;;;;40.50;13.40;;;;;;;1.06;69.03;99837.51;108142;1306;23186;-42
2023/03/17 05:31:12;;;;;;;30.20;13.40;;;;;;;1.05;69.29;99838.04;108139;1305;22238;-43
2023/03/17 05:33:38;;;;;;;29.60;13.90;;;;;;;1.07;69.34;99835.27;108136;1306;22476;-42
2023/03/17 05:36:03;;;;;;;34.70;12.80;;;;;;;1.10;69.48;99832.81;108125;1306;23344;-43
2023/03/17 05:38:28;;;;;;;28.50;12.00;;;;;;;1.10;68.96;99837.47;108112;1306;22240;-43
2023/03/17 05:40:54;;;;;;;29.90;13.60;;;;;;;1.10;68.99;99830.90;108122;1306;22322;-42
2023/03/17 05:43:20;;;;;;;32.20;12.90;;;;;;;1.15;68.82;99834.66;108111;1306;22979;-43
2023/03/17 05:45:46;;;;;;;26.90;12.70;;;;;;;1.15;68.56;99839.84;108133;1306;22233;-43
2023/03/17 05:48:12;;;;;;;32.30;12.90;;;;;;;1.11;68.46;99840.92;108145;1306;22390;-43
2023/03/17 05:50:38;;;;;;;27.00;12.80;;;;;;;1.09;68.54;99844.73;108110;1306;22211;-42
2023/03/17 05:53:03;;;;;;;35.40;12.70;;;;;;;1.07;68.59;99842.16;108145;1306;22414;-44
2023/03/17 05:55:29;;;;;;;31.50;12.30;;;;;;;1.08;68.62;99836.62;108126;1306;22236;-44
2023/03/17 05:57:54;;;;;;;30.60;12.70;;;;;;;1.10;68.76;99831.78;108121;1306;22220;-44
2023/03/17 06:00:20;;;;;;;34.30;13.30;;;;;;;1.13;68.58;99820.35;108129;1306;22396;-44
2023/03/17 06:02:46;;;;;;;25.10;12.60;;;;;;;1.15;68.47;99807.22;108114;1306;22881;-43
2023/03/17 06:05:12;;;;;;;27.40;13.20;;;;;;;1.18;68.29;99799.77;108134;1306;22226;-44
2023/03/17 06:07:38;;;;;;;36.70;15.40;;;;;;;1.20;68.02;99799.23;107620;1305;22388;-45
2023/03/17 06:10:04;;;;;;;33.70;16.30;;;;;;;1.24;67.91;99800.90;108112;1306;22839;-43
2023/03/17 06:12:29;;;;;;;42.20;16.20;;;;;;;1.27;68.11;99795.02;108117;1306;22353;-43
2023/03/17 06:14:55;;;;;;;39.90;15.30;;;;;;;1.32;67.91;99795.14;108114;1306;22339;-43
2023/03/17 06:17:20;;;;;;;33.40;14.80;;;;;;;1.39;68.19;99795.59;108129;1306;22308;-43
2023/03/17 06:19:45;;;;;;;39.10;15.50;;;;;;;1.38;67.98;99798.19;108112;1306;22262;-44
2023/03/17 06:22:11;;;;;;;30.70;14.80;;;;;;;1.42;68.03;99793.84;108101;1306;22223;-43
2023/03/17 06:24:36;;;;;;;42.30;18.40;;;;;;;1.51;67.82;99793.40;108119;1306;22308;-43
2023/03/17 06:27:01;;;;;;;36.10;15.90;;;;;;;1.55;67.42;99793.36;107888;1306;22584;-44
2023/03/17 06:29:28;;;;;;;33.50;15.70;;;;;;;1.53;67.06;99789.40;108103;1306;22976;-44
2023/03/17 06:31:53;;;;;;;33.80;15.80;;;;;;;1.52;66.87;99791.14;108128;1306;22386;-43
2023/03/17 06:34:21;;;;;;;33.60;16.20;;;;;;;1.59;66.94;99791.95;108117;1306;22383;-43
2023/03/17 06:36:46;;;;;;;;;;;;;;;1.62;66.94;99790.00;108092;1306;22437;-44
2023/03/17 06:39:12;;;;;;;41.70;15.90;;;;;;;1.64;66.94;99789.98;108055;1306;22392;-44
2023/03/17 06:41:38;;;;;;;35.40;15.10;;;;;;;1.66;66.93;99793.59;108014;1306;22266;-45
2023/03/17 06:44:07;;;;;;;36.70;15.00;;;;;;;1.69;66.83;99794.08;108020;1306;22418;-44
2023/03/17 06:46:33;;;;;;;44.10;17.20;;;;;;;1.68;66.90;99793.40;108019;1306;22187;-42
2023/03/17 06:48:58;;;;;;;35.50;16.60;;;;;;;1.72;66.90;99794.89;108043;1306;23311;-44
2023/03/17 06:51:24;;;;;;;42.50;17.60;;;;;;;1.75;66.77;99797.30;108019;1306;22232;-44
2023/03/17 06:53:49;;;;;;;47.70;19.90;;;;;;;1.80;66.77;99801.91;108013;1306;22263;-44
2023/03/17 06:56:15;;;;;;;56.50;24.10;;;;;;;1.84;66.67;99805.66;108024;1306;22230;-44
2023/03/17 06:58:41;;;;;;;46.00;20.70;;;;;;;1.87;66.49;99812.02;108025;1306;22259;-44
2023/03/17 07:01:06;;;;;;;40.00;19.30;;;;;;;1.92;66.34;99809.19;108056;1306;22234;-44
2023/03/17 07:03:34;;;;;;;47.60;18.20;;;;;;;1.96;66.18;99809.32;108028;1306;22331;-45
2023/03/17 07:06:00;;;;;;;38.80;17.90;;;;;;;1.99;65.72;99808.95;108015;1306;22359;-44
2023/03/17 07:08:29;;;;;;;38.20;17.20;;;;;;;2.03;65.48;99808.89;108022;1306;22278;-43
2023/03/17 07:10:56;;;;;;;37.50;17.10;;;;;;;2.02;65.53;99815.65;108033;1306;22220;-45
2023/03/17 07:13:21;;;;;;;39.50;17.10;;;;;;;2.07;65.39;99824.23;108006;1306;22237;-45
2023/03/17 07:15:48;;;;;;;41.20;17.60;;;;;;;2.11;65.22;99830.93;108010;1306;22408;-45
2023/03/17 07:18:13;;;;;;;34.40;16.70;;;;;;;2.17;65.23;99832.59;108037;1306;22233;-44
2023/03/17 07:20:40;;;;;;;36.70;16.80;;;;;;;2.20;65.15;99833.77;108015;1306;22972;-45
2023/03/17 07:23:06;;;;;;;38.50;16.30;;;;;;;2.26;65.11;99839.06;108012;1306;23442;-45
2023/03/17 07:25:32;;;;;;;38.00;15.70;;;;;;;2.32;64.78;99844.52;108005;1299;22489;-46
2023/03/17 07:27:57;;;;;;;34.40;15.90;;;;;;;2.39;64.61;99850.31;108112;1306;22418;-45
2023/03/17 07:30:22;;;;;;;41.50;16.70;;;;;;;2.47;64.69;99851.92;108104;1306;22696;-45
2023/03/17 07:32:48;;;;;;;39.30;17.30;;;;;;;2.56;64.55;99858.73;108112;1306;22842;-45
2023/03/17 07:35:14;;;;;;;37.90;16.10;;;;;;;2.63;64.13;99853.27;108141;1306;22137;-45
2023/03/17 07:37:40;;;;;;;30.20;15.00;;;;;;;2.70;64.02;99848.86;108143;1306;22394;-45
2023/03/17 07:40:08;;;;;;;37.60;15.50;;;;;;;2.74;63.18;99844.47;108130;1306;22850;-45
2023/03/17 07:42:34;;;;;;;48.50;17.20;;;;;;;2.82;63.11;99847.46;108117;1306;22235;-45
2023/03/17 07:44:59;;;;;;;37.50;16.10;;;;;;;2.90;63.51;99847.69;108126;1306;22428;-45
2023/03/17 07:47:25;;;;;;;32.00;15.00;;;;;;;2.97;63.01;99848.11;108122;1306;22289;-45
2023/03/17 07:49:52;;;;;;;34.20;14.30;;;;;;;3.03;62.24;99845.41;108130;1306;23157;-44
2023/03/17 07:52:17;;;;;;;37.90;15.40;;;;;;;3.12;61.95;99840.08;108128;1306;22309;-44
2023/03/17 07:54:43;;;;;;;40.00;15.00;;;;;;;3.18;61.25;99835.63;108108;1306;23004;-48
2023/03/17 07:57:09;;;;;;;38.10;14.70;;;;;;;3.26;61.04;99828.58;108122;1306;22473;-45
2023/03/17 07:59:35;;;;;;;41.00;16.00;;;;;;;3.36;61.23;99821.83;108120;1306;22213;-45
2023/03/17 08:02:00;;;;;;;38.70;17.10;;;;;;;3.43;61.06;99816.49;108122;1306;22957;-46
2023/03/17 08:04:26;;;;;;;38.60;15.60;;;;;;;3.53;60.48;99819.28;107900;1306;22204;-45
2023/03/17 08:06:53;;;;;;;34.50;14.40;;;;;;;3.75;60.52;99816.96;108129;1306;22528;-45
2023/03/17 08:09:20;;;;;;;56.50;20.50;;;;;;;3.97;59.93;99822.09;108133;1306;23114;-47
2023/03/17 08:11:46;;;;;;;;;;;;;;;4.17;58.82;99825.83;108147;1306;22444;-45
2023/03/17 08:14:12;;;;;;;30.70;13.30;;;;;;;4.38;57.40;99831.85;108040;1306;23166;-45
2023/03/17 08:16:37;;;;;;;33.50;14.10;;;;;;;4.60;58.10;99827.01;108124;1306;22415;-45
2023/03/17 08:19:03;;;;;;;34.90;15.10;;;;;;;4.74;56.85;99825.65;108121;1306;23138;-45
2023/03/17 08:21:29;;;;;;;33.10;13.40;;;;;;;4.89;56.43;99822.17;108149;1306;22188;-46
2023/03/17 08:23:55;;;;;;;34.10;13.20;;;;;;;5.01;55.97;99817.38;108120;1306;22706;-46
2023/03/17 08:26:21;;;;;;;31.90;14.70;;;;;;;5.14;56.23;99821.41;108147;1306;22354;-46
2023/03/17 08:28:49;;;;;;;29.00;13.10;;;;;;;5.21;54.67;99824.90;108127;1306;22845;-46
2023/03/17 08:31:21;;;;;;;33.90;13.10;;;;;;;5.32;54.04;99824.63;108132;1306;22288;-47
2023/03/17 08:33:49;;;;;;;30.20;13.20;;;;;;;5.46;53.11;99823.77;108136;1306;22313;-46
2023/03/17 08:36:16;;;;;;;27.20;12.60;;;;;;;5.68;53.14;99820.23;108126;1306;22272;-48
2023/03/17 08:38:42;;;;;;;25.90;12.70;;;;;;;5.92;53.46;99814.17;108155;1305;22391;-49
2023/03/17 08:41:12;;;;;;;32.90;11.60;;;;;;;6.12;51.02;99808.78;108112;1306;22223;-49
2023/03/17 08:43:38;;;;;;;27.50;11.00;;;;;;;6.33;50.80;99804.33;108147;1304;22289;-49
2023/03/17 08:46:19;;;;;;;29.80;10.40;;;;;;;6.49;49.86;99802.09;108125;1306;22280;-48
2023/03/17 08:48:47;;;;;;;24.80;10.90;;;;;;;6.76;49.18;99805.96;108116;1306;23084;-48
2023/03/17 08:51:13;;;;;;;24.50;10.80;;;;;;;7.08;48.47;99801.83;108119;1305;22474;-49
2023/03/17 08:53:40;;;;;;;21.80;10.00;;;;;;;7.41;46.85;99797.40;108127;1306;22302;-49
2023/03/17 08:56:07;;;;;;;21.40;8.90;;;;;;;7.72;45.77;99789.70;108136;1306;23267;-47
2023/03/17 08:58:34;;;;;;;27.30;9.30;;;;;;;7.84;44.93;99793.98;108126;1304;23187;-48
2023/03/17 09:01:00;;;;;;;;;;;;;;;7.99;44.69;99792.05;108149;1306;22439;-47
2023/03/17 09:03:26;;;;;;;20.90;8.50;;;;;;;8.11;43.32;99795.95;108124;1305;22204;-47
2023/03/17 09:05:52;;;;;;;18.60;7.50;;;;;;;8.31;43.56;99796.11;108102;1306;22476;-46
2023/03/17 09:08:18;;;;;;;15.50;7.40;;;;;;;8.60;42.78;99796.24;108114;1306;22421;-47
2023/03/17 09:10:43;;;;;;;23.20;6.30;;;;;;;8.82;41.14;99793.98;108149;1306;22217;-47
2023/03/17 09:13:09;;;;;;;15.60;7.30;;;;;;;9.04;41.78;99778.73;108138;1306;22407;-47
2023/03/17 09:15:34;;;;;;;19.40;7.60;;;;;;;9.11;40.86;99776.52;108118;1306;22225;-47
2023/03/17 09:18:00;;;;;;;21.80;5.90;;;;;;;9.15;38.07;99768.34;108117;1306;22228;-48
2023/03/17 09:20:25;;;;;;;20.90;6.90;;;;;;;9.49;38.52;99761.79;108126;1306;23002;-47
2023/03/17 09:22:51;;;;;;;24.40;7.40;;;;;;;9.74;37.45;99754.80;108090;1306;23021;-48
2023/03/17 09:25:17;;;;;;;14.00;5.50;;;;;;;10.05;37.65;99753.02;108122;1306;22115;-48
2023/03/17 09:27:43;;;;;;;13.60;5.40;;;;;;;10.40;36.42;99752.48;108135;1306;22935;-48
2023/03/17 09:30:12;;;;;;;26.70;5.90;;;;;;;10.37;35.09;99751.39;108113;1306;22365;-47
2023/03/17 09:32:38;;;;;;;16.70;5.60;;;;;;;10.12;35.02;99749.89;108134;1306;22235;-47
2023/03/17 09:35:04;;;;;;;24.40;6.20;;;;;;;10.03;35.14;99748.73;108114;1306;23248;-47
2023/03/17 09:37:29;;;;;;;16.30;5.80;;;;;;;10.07;36.86;99747.67;108104;1306;22303;-47
2023/03/17 09:39:56;;;;;;;8.50;4.90;;;;;;;9.71;35.72;99744.71;108110;1306;23063;-48
2023/03/17 09:42:37;;;;;;;12.10;6.10;;;;;;;9.67;36.61;99742.15;108095;1306;22406;-47
2023/03/17 09:45:14;;;;;;;15.40;5.90;;;;;;;9.65;38.55;99742.94;108085;1298;22344;-47
2023/03/17 09:48:18;;;;;;;14.50;6.00;;;;;;;9.53;38.36;99741.00;108033;1294;22253;-48
2023/03/17 09:50:56;;;;;;;16.70;6.40;;;;;;;9.27;37.37;99734.21;107992;1298;22363;-48
2023/03/17 09:53:48;;;;;;;20.80;5.90;;;;;;;9.14;36.97;99735.13;108105;1306;22283;-49
2023/03/17 09:56:16;;;;;;;14.70;6.40;;;;;;;9.05;37.52;99740.23;108008;1306;22286;-47
2023/03/17 09:59:21;;;;;;;19.40;6.50;;;;;;;8.92;37.54;99742.54;107914;1306;22257;-48
2023/03/17 10:01:46;;;;;;;17.40;7.00;;;;;;;8.78;37.35;99747.98;108073;1306;22230;-46
2023/03/17 10:04:12;;;;;;;13.70;6.60;;;;;;;8.78;38.08;99745.19;108069;1306;22209;-48
2023/03/17 10:07:02;;;;;;;13.90;6.20;;;;;;;8.78;37.78;99750.25;108093;1306;22416;-45
2023/03/17 10:10:01;;;;;;;15.40;5.60;;;;;;;8.80;37.70;99759.11;108110;1305;22346;-47
2023/03/17 10:13:05;;;;;;;13.00;5.60;;;;;;;8.81;37.65;99753.83;108042;1306;22125;-47
2023/03/17 10:15:35;;;;;;;16.30;5.70;;;;;;;8.67;36.53;99755.23;107666;1306;22234;-47
2023/03/17 10:18:08;;;;;;;12.90;6.30;;;;;;;8.64;36.40;99753.10;108025;1306;22214;-49
2023/03/17 10:20:37;;;;;;;10.30;5.90;;;;;;;8.69;36.40;99747.14;108009;1306;22365;-47
2023/03/17 10:23:10;;;;;;;16.50;6.30;;;;;;;8.77;36.94;99753.45;107791;1306;22196;-46
2023/03/17 10:25:36;;;;;;;12.70;5.60;;;;;;;8.70;36.01;99762.64;108032;1306;22279;-45
2023/03/17 10:28:10;;;;;;;15.40;5.50;;;;;;;8.62;35.54;99758.92;108016;1306;22247;-45
2023/03/17 10:30:35;;;;;;;16.20;6.30;;;;;;;8.63;36.06;99758.55;108005;1306;22237;-45
2023/03/17 10:33:05;;;;;;;18.00;5.80;;;;;;;8.72;36.57;99752.09;108010;1298;22919;-46
2023/03/17 10:35:34;;;;;;;13.90;5.30;;;;;;;8.80;35.90;99748.45;108009;1306;22877;-46
2023/03/17 10:38:01;;;;;;;15.60;6.50;;;;;;;8.87;36.18;99750.09;108013;1306;22287;-46
2023/03/17 10:40:29;;;;;;;14.10;5.90;;;;;;;8.91;36.20;99749.05;108008;1306;22322;-47
2023/03/17 10:43:09;;;;;;;11.30;5.50;;;;;;;8.98;35.76;99745.59;107998;1306;22295;-47
2023/03/17 10:45:40;;;;;;;15.60;5.80;;;;;;;9.04;35.70;99736.42;108000;1306;22383;-46
2023/03/17 10:48:09;;;;;;;19.60;6.50;;;;;;;9.18;35.79;99729.73;108004;1306;22263;-47
2023/03/17 10:50:36;;;;;;;9.90;5.60;;;;;;;9.19;35.60;99732.13;108009;1301;22309;-45
2023/03/17 10:53:01;;;;;;;13.50;6.00;;;;;;;9.09;35.17;99728.71;108020;1299;22687;-46
2023/03/17 10:55:31;;;;;;;13.70;5.80;;;;;;;9.04;35.48;99732.05;108041;1299;22409;-46
2023/03/17 10:58:12;;;;;;;18.20;5.80;;;;;;;9.10;35.84;99721.65;108019;1295;22299;-46
2023/03/17 11:00:38;;;;;;;12.30;5.60;;;;;;;8.99;34.58;99723.70;108035;1306;23022;-46
2023/03/17 11:03:13;;;;;;;9.60;4.80;;;;;;;9.11;34.78;99721.79;108066;1299;22924;-46
2023/03/17 11:05:39;;;;;;;12.00;5.00;;;;;;;9.08;34.35;99714.06;108082;1305;22363;-47
2023/03/17 11:08:15;;;;;;;17.70;5.50;;;;;;;9.20;35.52;99709.33;108062;1306;22228;-48
2023/03/17 11:10:41;;;;;;;16.20;5.60;;;;;;;9.30;34.81;99701.23;108098;1305;22394;-46
2023/03/17 11:13:07;;;;;;;21.20;5.70;;;;;;;9.28;32.83;99694.63;108112;1305;22322;-47
2023/03/17 11:15:36;;;;;;;16.00;5.20;;;;;;;9.35;32.45;99696.98;108054;1306;22222;-49
2023/03/17 11:18:18;;;;;;;14.20;4.70;;;;;;;9.34;32.59;99691.60;108095;1306;22252;-48
2023/03/17 11:20:48;;;;;;;15.60;4.90;;;;;;;9.39;32.30;99686.66;108063;1305;22430;-46
2023/03/17 11:23:25;;;;;;;11.40;5.20;;;;;;;9.68;33.25;99687.80;108099;1299;22323;-48